sensor_id;sensor_type;location;lat;lon;timestamp;P1;durP1;ratioP1;P2;durP2;ratioP2
65377;SDS011;51982;51.042;13.806;2022-08-25T00:00:04;17.60;;;10.10;;
65377;SDS011;51982;51.042;13.806;2022-08-25T00:02:30;13.35;;;10.18;;
65377;SDS011;51982;51.042;13.806;2022-08-25T00:04:55;12.95;;;10.13;;
65377;SDS011;51982;51.042;13.806;2022-08-25T00:07:21;16.17;;;10.07;;
65377;SDS011;51982;51.042;13.806;2022-08-25T00:09:46;21.13;;;10.10;;
65377;SDS011;51982;51.042;13.806;2022-08-25T00:12:11;17.90;;;10.75;;
65377;SDS011;51982;51.042;13.806;2022-08-25T00:14:37;18.47;;;10.60;;
65377;SDS011;51982;51.042;13.806;2022-08-25T00:17:02;17.75;;;10.95;;
65377;SDS011;51982;51.042;13.806;2022-08-25T00:19:30;15.23;;;10.15;;
65377;SDS011;51982;51.042;13.806;2022-08-25T00:21:58;13.27;;;9.73;;
65377;SDS011;51982;51.042;13.806;2022-08-25T00:24:24;16.98;;;10.38;;
65377;SDS011;51982;51.042;13.806;2022-08-25T00:26:51;17.50;;;10.30;;
65377;SDS011;51982;51.042;13.806;2022-08-25T00:29:18;14.68;;;10.02;;
65377;SDS011;51982;51.042;13.806;2022-08-25T00:31:45;18.85;;;10.30;;
65377;SDS011;51982;51.042;13.806;2022-08-25T00:34:13;25.10;;;10.18;;
65377;SDS011;51982;51.042;13.806;2022-08-25T00:36:40;16.30;;;10.60;;
65377;SDS011;51982;51.042;13.806;2022-08-25T00:39:06;17.52;;;10.23;;
65377;SDS011;51982;51.042;13.806;2022-08-25T00:41:33;17.35;;;10.70;;
65377;SDS011;51982;51.042;13.806;2022-08-25T00:44:01;20.67;;;11.00;;
65377;SDS011;51982;51.042;13.806;2022-08-25T00:46:39;15.18;;;10.50;;
65377;SDS011;51982;51.042;13.806;2022-08-25T00:49:26;18.35;;;10.38;;
65377;SDS011;51982;51.042;13.806;2022-08-25T00:52:09;20.05;;;9.85;;
65377;SDS011;51982;51.042;13.806;2022-08-25T00:54:39;20.85;;;11.15;;
65377;SDS011;51982;51.042;13.806;2022-08-25T00:57:20;15.25;;;10.05;;
65377;SDS011;51982;51.042;13.806;2022-08-25T00:59:48;17.52;;;10.45;;
65377;SDS011;51982;51.042;13.806;2022-08-25T01:02:14;21.02;;;9.63;;
65377;SDS011;51982;51.042;13.806;2022-08-25T01:04:40;17.75;;;10.05;;
65377;SDS011;51982;51.042;13.806;2022-08-25T01:07:07;22.70;;;9.85;;
65377;SDS011;51982;51.042;13.806;2022-08-25T01:09:32;17.05;;;10.18;;
65377;SDS011;51982;51.042;13.806;2022-08-25T01:11:58;14.45;;;10.30;;
65377;SDS011;51982;51.042;13.806;2022-08-25T01:14:24;16.23;;;10.50;;
65377;SDS011;51982;51.042;13.806;2022-08-25T01:16:51;15.95;;;10.07;;
65377;SDS011;51982;51.042;13.806;2022-08-25T01:19:17;16.38;;;11.05;;
65377;SDS011;51982;51.042;13.806;2022-08-25T01:21:44;15.48;;;11.57;;
65377;SDS011;51982;51.042;13.806;2022-08-25T01:24:19;14.82;;;10.15;;
65377;SDS011;51982;51.042;13.806;2022-08-25T01:26:47;15.05;;;10.35;;
65377;SDS011;51982;51.042;13.806;2022-08-25T01:29:12;19.43;;;10.53;;
65377;SDS011;51982;51.042;13.806;2022-08-25T01:31:50;15.07;;;10.43;;
65377;SDS011;51982;51.042;13.806;2022-08-25T01:34:20;18.38;;;10.77;;
65377;SDS011;51982;51.042;13.806;2022-08-25T01:36:46;19.02;;;10.38;;
65377;SDS011;51982;51.042;13.806;2022-08-25T01:39:11;18.45;;;10.55;;
65377;SDS011;51982;51.042;13.806;2022-08-25T01:44:14;14.23;;;10.80;;
65377;SDS011;51982;51.042;13.806;2022-08-25T01:46:41;17.40;;;11.07;;
65377;SDS011;51982;51.042;13.806;2022-08-25T01:49:06;17.80;;;10.70;;
65377;SDS011;51982;51.042;13.806;2022-08-25T01:51:33;17.98;;;10.88;;
65377;SDS011;51982;51.042;13.806;2022-08-25T01:54:03;15.80;;;11.00;;
65377;SDS011;51982;51.042;13.806;2022-08-25T01:56:29;14.85;;;9.98;;
65377;SDS011;51982;51.042;13.806;2022-08-25T01:58:55;13.77;;;10.40;;
65377;SDS011;51982;51.042;13.806;2022-08-25T02:01:22;17.20;;;10.77;;
65377;SDS011;51982;51.042;13.806;2022-08-25T02:03:49;17.13;;;9.95;;
65377;SDS011;51982;51.042;13.806;2022-08-25T02:06:18;15.57;;;10.38;;
65377;SDS011;51982;51.042;13.806;2022-08-25T02:08:50;13.77;;;10.15;;
65377;SDS011;51982;51.042;13.806;2022-08-25T02:11:18;19.20;;;11.20;;
65377;SDS011;51982;51.042;13.806;2022-08-25T02:13:45;24.15;;;11.40;;
65377;SDS011;51982;51.042;13.806;2022-08-25T02:16:13;18.00;;;10.50;;
65377;SDS011;51982;51.042;13.806;2022-08-25T02:18:42;15.98;;;10.60;;
65377;SDS011;51982;51.042;13.806;2022-08-25T02:21:07;14.82;;;10.57;;
65377;SDS011;51982;51.042;13.806;2022-08-25T02:23:33;16.23;;;10.82;;
65377;SDS011;51982;51.042;13.806;2022-08-25T02:25:58;19.27;;;10.63;;
65377;SDS011;51982;51.042;13.806;2022-08-25T02:28:23;13.57;;;10.50;;
65377;SDS011;51982;51.042;13.806;2022-08-25T02:30:49;17.98;;;10.73;;
65377;SDS011;51982;51.042;13.806;2022-08-25T02:33:16;17.88;;;10.45;;
65377;SDS011;51982;51.042;13.806;2022-08-25T02:35:41;14.35;;;10.68;;
65377;SDS011;51982;51.042;13.806;2022-08-25T02:38:07;15.53;;;10.70;;
65377;SDS011;51982;51.042;13.806;2022-08-25T02:40:32;16.37;;;10.20;;
65377;SDS011;51982;51.042;13.806;2022-08-25T02:42:58;17.50;;;10.15;;
65377;SDS011;51982;51.042;13.806;2022-08-25T02:45:23;16.90;;;10.50;;
65377;SDS011;51982;51.042;13.806;2022-08-25T02:47:49;19.05;;;11.10;;
65377;SDS011;51982;51.042;13.806;2022-08-25T02:50:14;20.48;;;10.80;;
65377;SDS011;51982;51.042;13.806;2022-08-25T02:52:40;20.88;;;10.88;;
65377;SDS011;51982;51.042;13.806;2022-08-25T02:55:06;17.20;;;10.60;;
65377;SDS011;51982;51.042;13.806;2022-08-25T02:57:34;16.77;;;10.55;;
65377;SDS011;51982;51.042;13.806;2022-08-25T02:59:59;15.32;;;10.40;;
65377;SDS011;51982;51.042;13.806;2022-08-25T03:02:25;18.25;;;10.98;;
65377;SDS011;51982;51.042;13.806;2022-08-25T03:04:51;16.80;;;10.82;;
65377;SDS011;51982;51.042;13.806;2022-08-25T03:07:18;19.67;;;11.00;;
65377;SDS011;51982;51.042;13.806;2022-08-25T03:09:44;16.38;;;11.05;;
65377;SDS011;51982;51.042;13.806;2022-08-25T03:12:10;18.27;;;10.70;;
65377;SDS011;51982;51.042;13.806;2022-08-25T03:14:36;13.52;;;10.15;;
65377;SDS011;51982;51.042;13.806;2022-08-25T03:17:03;15.63;;;10.32;;
65377;SDS011;51982;51.042;13.806;2022-08-25T03:19:28;17.08;;;10.65;;
65377;SDS011;51982;51.042;13.806;2022-08-25T03:21:54;17.15;;;10.98;;
65377;SDS011;51982;51.042;13.806;2022-08-25T03:24:21;17.63;;;10.90;;
65377;SDS011;51982;51.042;13.806;2022-08-25T03:26:47;16.38;;;10.85;;
65377;SDS011;51982;51.042;13.806;2022-08-25T03:29:20;17.13;;;11.65;;
65377;SDS011;51982;51.042;13.806;2022-08-25T03:31:47;16.80;;;11.32;;
65377;SDS011;51982;51.042;13.806;2022-08-25T03:34:13;20.42;;;10.93;;
65377;SDS011;51982;51.042;13.806;2022-08-25T03:36:43;21.05;;;11.23;;
65377;SDS011;51982;51.042;13.806;2022-08-25T03:39:10;18.75;;;11.32;;
65377;SDS011;51982;51.042;13.806;2022-08-25T03:41:35;18.77;;;11.75;;
65377;SDS011;51982;51.042;13.806;2022-08-25T03:44:02;16.63;;;11.85;;
65377;SDS011;51982;51.042;13.806;2022-08-25T03:46:29;16.45;;;11.35;;
65377;SDS011;51982;51.042;13.806;2022-08-25T03:49:01;17.98;;;11.77;;
65377;SDS011;51982;51.042;13.806;2022-08-25T03:51:30;18.77;;;11.30;;
65377;SDS011;51982;51.042;13.806;2022-08-25T03:53:58;18.88;;;11.68;;
65377;SDS011;51982;51.042;13.806;2022-08-25T03:56:23;21.40;;;12.05;;
65377;SDS011;51982;51.042;13.806;2022-08-25T03:58:49;15.55;;;10.82;;
65377;SDS011;51982;51.042;13.806;2022-08-25T04:01:15;16.63;;;11.52;;
65377;SDS011;51982;51.042;13.806;2022-08-25T04:03:40;17.67;;;11.23;;
65377;SDS011;51982;51.042;13.806;2022-08-25T04:06:06;18.45;;;11.63;;
65377;SDS011;51982;51.042;13.806;2022-08-25T04:08:32;18.05;;;11.75;;
65377;SDS011;51982;51.042;13.806;2022-08-25T04:10:57;18.65;;;11.63;;
65377;SDS011;51982;51.042;13.806;2022-08-25T04:13:22;17.98;;;11.40;;
65377;SDS011;51982;51.042;13.806;2022-08-25T04:15:48;17.35;;;11.27;;
65377;SDS011;51982;51.042;13.806;2022-08-25T04:18:14;19.75;;;10.63;;
65377;SDS011;51982;51.042;13.806;2022-08-25T04:20:40;15.95;;;11.10;;
65377;SDS011;51982;51.042;13.806;2022-08-25T04:23:06;15.05;;;10.75;;
65377;SDS011;51982;51.042;13.806;2022-08-25T04:25:32;14.63;;;10.50;;
65377;SDS011;51982;51.042;13.806;2022-08-25T04:27:58;17.48;;;10.63;;
65377;SDS011;51982;51.042;13.806;2022-08-25T04:30:23;11.90;;;10.20;;
65377;SDS011;51982;51.042;13.806;2022-08-25T04:32:48;15.77;;;10.83;;
65377;SDS011;51982;51.042;13.806;2022-08-25T04:35:14;13.07;;;9.73;;
65377;SDS011;51982;51.042;13.806;2022-08-25T04:37:39;16.25;;;10.32;;
65377;SDS011;51982;51.042;13.806;2022-08-25T04:40:05;16.85;;;10.20;;
65377;SDS011;51982;51.042;13.806;2022-08-25T04:42:31;16.98;;;10.63;;
65377;SDS011;51982;51.042;13.806;2022-08-25T04:44:56;16.52;;;10.18;;
65377;SDS011;51982;51.042;13.806;2022-08-25T04:47:22;18.27;;;10.50;;
65377;SDS011;51982;51.042;13.806;2022-08-25T04:49:48;18.63;;;10.90;;
65377;SDS011;51982;51.042;13.806;2022-08-25T04:52:13;15.23;;;10.88;;
65377;SDS011;51982;51.042;13.806;2022-08-25T04:54:39;17.17;;;10.50;;
65377;SDS011;51982;51.042;13.806;2022-08-25T04:57:04;18.10;;;10.23;;
65377;SDS011;51982;51.042;13.806;2022-08-25T04:59:29;13.27;;;10.07;;
65377;SDS011;51982;51.042;13.806;2022-08-25T05:01:55;14.60;;;9.88;;
65377;SDS011;51982;51.042;13.806;2022-08-25T05:04:21;18.80;;;10.35;;
65377;SDS011;51982;51.042;13.806;2022-08-25T05:06:47;15.00;;;9.80;;
65377;SDS011;51982;51.042;13.806;2022-08-25T05:09:12;15.57;;;9.55;;
65377;SDS011;51982;51.042;13.806;2022-08-25T05:11:39;20.25;;;9.55;;
65377;SDS011;51982;51.042;13.806;2022-08-25T05:14:04;17.83;;;10.27;;
65377;SDS011;51982;51.042;13.806;2022-08-25T05:16:35;14.13;;;10.70;;
65377;SDS011;51982;51.042;13.806;2022-08-25T05:19:00;16.10;;;10.30;;
65377;SDS011;51982;51.042;13.806;2022-08-25T05:21:26;13.47;;;10.00;;
65377;SDS011;51982;51.042;13.806;2022-08-25T05:23:54;19.20;;;10.18;;
65377;SDS011;51982;51.042;13.806;2022-08-25T05:26:23;18.08;;;10.70;;
65377;SDS011;51982;51.042;13.806;2022-08-25T05:28:51;15.27;;;9.98;;
65377;SDS011;51982;51.042;13.806;2022-08-25T05:31:18;13.52;;;9.43;;
65377;SDS011;51982;51.042;13.806;2022-08-25T05:33:44;14.95;;;9.63;;
65377;SDS011;51982;51.042;13.806;2022-08-25T05:36:10;13.50;;;9.60;;
65377;SDS011;51982;51.042;13.806;2022-08-25T05:38:37;13.77;;;9.27;;
65377;SDS011;51982;51.042;13.806;2022-08-25T05:41:04;15.38;;;9.50;;
65377;SDS011;51982;51.042;13.806;2022-08-25T05:43:35;14.77;;;8.75;;
65377;SDS011;51982;51.042;13.806;2022-08-25T05:46:01;12.60;;;9.25;;
65377;SDS011;51982;51.042;13.806;2022-08-25T05:48:27;14.18;;;10.02;;
65377;SDS011;51982;51.042;13.806;2022-08-25T05:50:53;14.75;;;9.57;;
65377;SDS011;51982;51.042;13.806;2022-08-25T05:53:23;18.45;;;10.50;;
65377;SDS011;51982;51.042;13.806;2022-08-25T05:55:50;12.88;;;9.80;;
65377;SDS011;51982;51.042;13.806;2022-08-25T05:58:16;14.70;;;10.02;;
65377;SDS011;51982;51.042;13.806;2022-08-25T06:00:42;16.33;;;10.10;;
65377;SDS011;51982;51.042;13.806;2022-08-25T06:03:07;14.23;;;10.90;;
65377;SDS011;51982;51.042;13.806;2022-08-25T06:05:32;17.02;;;10.50;;
65377;SDS011;51982;51.042;13.806;2022-08-25T06:07:58;15.93;;;10.65;;
65377;SDS011;51982;51.042;13.806;2022-08-25T06:10:23;13.73;;;10.15;;
65377;SDS011;51982;51.042;13.806;2022-08-25T06:12:49;13.77;;;10.30;;
65377;SDS011;51982;51.042;13.806;2022-08-25T06:15:16;16.17;;;10.25;;
65377;SDS011;51982;51.042;13.806;2022-08-25T06:17:43;16.15;;;10.27;;
65377;SDS011;51982;51.042;13.806;2022-08-25T06:20:10;15.85;;;9.98;;
65377;SDS011;51982;51.042;13.806;2022-08-25T06:22:38;17.50;;;9.77;;
65377;SDS011;51982;51.042;13.806;2022-08-25T06:25:05;16.08;;;9.90;;
65377;SDS011;51982;51.042;13.806;2022-08-25T06:27:31;17.35;;;10.30;;
65377;SDS011;51982;51.042;13.806;2022-08-25T06:29:57;17.98;;;10.52;;
65377;SDS011;51982;51.042;13.806;2022-08-25T06:32:22;21.40;;;10.70;;
65377;SDS011;51982;51.042;13.806;2022-08-25T06:34:47;15.07;;;11.05;;
65377;SDS011;51982;51.042;13.806;2022-08-25T06:37:12;18.80;;;10.60;;
65377;SDS011;51982;51.042;13.806;2022-08-25T06:39:38;14.60;;;10.30;;
65377;SDS011;51982;51.042;13.806;2022-08-25T06:42:03;16.73;;;10.88;;
65377;SDS011;51982;51.042;13.806;2022-08-25T06:44:29;17.33;;;11.13;;
65377;SDS011;51982;51.042;13.806;2022-08-25T06:46:54;22.75;;;10.52;;
65377;SDS011;51982;51.042;13.806;2022-08-25T06:49:19;14.50;;;10.13;;
65377;SDS011;51982;51.042;13.806;2022-08-25T06:51:44;16.10;;;10.38;;
65377;SDS011;51982;51.042;13.806;2022-08-25T06:54:10;17.23;;;11.15;;
65377;SDS011;51982;51.042;13.806;2022-08-25T06:56:36;16.67;;;10.35;;
65377;SDS011;51982;51.042;13.806;2022-08-25T06:59:03;18.13;;;10.35;;
65377;SDS011;51982;51.042;13.806;2022-08-25T07:01:30;15.15;;;9.50;;
65377;SDS011;51982;51.042;13.806;2022-08-25T07:03:56;16.83;;;10.20;;
65377;SDS011;51982;51.042;13.806;2022-08-25T07:06:23;15.40;;;9.43;;
65377;SDS011;51982;51.042;13.806;2022-08-25T07:08:50;20.05;;;9.55;;
65377;SDS011;51982;51.042;13.806;2022-08-25T07:11:15;19.27;;;9.50;;
65377;SDS011;51982;51.042;13.806;2022-08-25T07:13:42;18.05;;;10.50;;
65377;SDS011;51982;51.042;13.806;2022-08-25T07:16:07;17.30;;;10.43;;
65377;SDS011;51982;51.042;13.806;2022-08-25T07:18:34;14.82;;;10.15;;
65377;SDS011;51982;51.042;13.806;2022-08-25T07:21:00;15.87;;;9.63;;
65377;SDS011;51982;51.042;13.806;2022-08-25T07:23:25;16.52;;;10.60;;
65377;SDS011;51982;51.042;13.806;2022-08-25T07:25:52;16.45;;;11.05;;
65377;SDS011;51982;51.042;13.806;2022-08-25T07:28:18;13.18;;;9.73;;
65377;SDS011;51982;51.042;13.806;2022-08-25T07:30:44;26.70;;;11.05;;
65377;SDS011;51982;51.042;13.806;2022-08-25T07:33:10;17.02;;;10.52;;
65377;SDS011;51982;51.042;13.806;2022-08-25T07:35:35;15.38;;;10.60;;
65377;SDS011;51982;51.042;13.806;2022-08-25T07:38:02;15.93;;;10.20;;
65377;SDS011;51982;51.042;13.806;2022-08-25T07:40:29;17.38;;;10.52;;
65377;SDS011;51982;51.042;13.806;2022-08-25T07:42:59;18.33;;;10.70;;
65377;SDS011;51982;51.042;13.806;2022-08-25T07:45:28;12.75;;;9.95;;
65377;SDS011;51982;51.042;13.806;2022-08-25T07:47:58;18.88;;;10.48;;
65377;SDS011;51982;51.042;13.806;2022-08-25T07:50:25;15.50;;;10.68;;
65377;SDS011;51982;51.042;13.806;2022-08-25T07:52:53;17.67;;;10.70;;
65377;SDS011;51982;51.042;13.806;2022-08-25T07:55:19;21.73;;;11.32;;
65377;SDS011;51982;51.042;13.806;2022-08-25T07:57:45;19.13;;;10.05;;
65377;SDS011;51982;51.042;13.806;2022-08-25T08:00:11;16.40;;;11.25;;
65377;SDS011;51982;51.042;13.806;2022-08-25T08:02:39;17.60;;;11.05;;
65377;SDS011;51982;51.042;13.806;2022-08-25T08:05:05;17.25;;;10.95;;
65377;SDS011;51982;51.042;13.806;2022-08-25T08:07:31;16.33;;;11.20;;
65377;SDS011;51982;51.042;13.806;2022-08-25T08:09:56;14.82;;;11.25;;
65377;SDS011;51982;51.042;13.806;2022-08-25T08:12:22;16.48;;;10.93;;
65377;SDS011;51982;51.042;13.806;2022-08-25T08:14:48;18.70;;;12.00;;
65377;SDS011;51982;51.042;13.806;2022-08-25T08:17:13;14.32;;;11.60;;
65377;SDS011;51982;51.042;13.806;2022-08-25T08:19:39;21.58;;;11.02;;
65377;SDS011;51982;51.042;13.806;2022-08-25T08:22:05;20.48;;;12.18;;
65377;SDS011;51982;51.042;13.806;2022-08-25T08:24:31;21.25;;;12.65;;
65377;SDS011;51982;51.042;13.806;2022-08-25T08:27:03;28.40;;;12.40;;
65377;SDS011;51982;51.042;13.806;2022-08-25T08:29:30;17.90;;;11.25;;
65377;SDS011;51982;51.042;13.806;2022-08-25T08:31:55;20.55;;;11.77;;
65377;SDS011;51982;51.042;13.806;2022-08-25T08:34:20;19.02;;;11.23;;
65377;SDS011;51982;51.042;13.806;2022-08-25T08:36:47;17.80;;;11.40;;
65377;SDS011;51982;51.042;13.806;2022-08-25T08:39:12;16.85;;;11.48;;
65377;SDS011;51982;51.042;13.806;2022-08-25T08:44:35;17.42;;;10.85;;
65377;SDS011;51982;51.042;13.806;2022-08-25T08:47:10;16.90;;;10.98;;
65377;SDS011;51982;51.042;13.806;2022-08-25T08:49:54;14.57;;;10.80;;
65377;SDS011;51982;51.042;13.806;2022-08-25T08:55:20;15.80;;;10.98;;
65377;SDS011;51982;51.042;13.806;2022-08-25T08:57:47;18.37;;;10.23;;
65377;SDS011;51982;51.042;13.806;2022-08-25T09:00:15;16.05;;;10.07;;
65377;SDS011;51982;51.042;13.806;2022-08-25T09:02:47;16.80;;;10.02;;
65377;SDS011;51982;51.042;13.806;2022-08-25T09:05:19;15.60;;;10.27;;
65377;SDS011;51982;51.042;13.806;2022-08-25T09:07:50;20.45;;;9.95;;
65377;SDS011;51982;51.042;13.806;2022-08-25T09:10:19;13.05;;;9.18;;
65377;SDS011;51982;51.042;13.806;2022-08-25T09:12:45;15.98;;;9.48;;
65377;SDS011;51982;51.042;13.806;2022-08-25T09:18:38;15.73;;;8.73;;
65377;SDS011;51982;51.042;13.806;2022-08-25T09:24:16;15.45;;;8.43;;
65377;SDS011;51982;51.042;13.806;2022-08-25T09:26:57;15.93;;;8.67;;
65377;SDS011;51982;51.042;13.806;2022-08-25T09:29:46;13.93;;;8.43;;
65377;SDS011;51982;51.042;13.806;2022-08-25T09:32:26;12.38;;;7.78;;
65377;SDS011;51982;51.042;13.806;2022-08-25T09:34:54;13.77;;;8.38;;
65377;SDS011;51982;51.042;13.806;2022-08-25T09:37:20;15.30;;;8.45;;
65377;SDS011;51982;51.042;13.806;2022-08-25T09:39:47;21.00;;;8.38;;
65377;SDS011;51982;51.042;13.806;2022-08-25T09:42:13;19.38;;;7.63;;
65377;SDS011;51982;51.042;13.806;2022-08-25T09:44:40;19.37;;;7.57;;
65377;SDS011;51982;51.042;13.806;2022-08-25T09:49:58;22.42;;;7.32;;
65377;SDS011;51982;51.042;13.806;2022-08-25T09:54:53;15.32;;;5.60;;
65377;SDS011;51982;51.042;13.806;2022-08-25T09:57:34;22.50;;;5.82;;
65377;SDS011;51982;51.042;13.806;2022-08-25T10:00:08;20.65;;;5.70;;
65377;SDS011;51982;51.042;13.806;2022-08-25T10:02:39;23.05;;;5.85;;
65377;SDS011;51982;51.042;13.806;2022-08-25T10:05:19;22.85;;;5.55;;
65377;SDS011;51982;51.042;13.806;2022-08-25T10:07:59;29.17;;;5.43;;
65377;SDS011;51982;51.042;13.806;2022-08-25T10:10:37;28.63;;;5.82;;
65377;SDS011;51982;51.042;13.806;2022-08-25T10:13:16;16.45;;;5.10;;
65377;SDS011;51982;51.042;13.806;2022-08-25T10:15:43;24.80;;;5.28;;
65377;SDS011;51982;51.042;13.806;2022-08-25T10:18:20;24.20;;;5.53;;
65377;SDS011;51982;51.042;13.806;2022-08-25T10:21:03;19.25;;;5.32;;
65377;SDS011;51982;51.042;13.806;2022-08-25T10:23:35;25.88;;;5.38;;
65377;SDS011;51982;51.042;13.806;2022-08-25T10:26:08;30.48;;;5.00;;
65377;SDS011;51982;51.042;13.806;2022-08-25T10:28:47;22.75;;;6.22;;
65377;SDS011;51982;51.042;13.806;2022-08-25T10:33:54;28.92;;;5.25;;
65377;SDS011;51982;51.042;13.806;2022-08-25T10:40:02;25.42;;;5.95;;
65377;SDS011;51982;51.042;13.806;2022-08-25T10:42:54;29.60;;;5.40;;
65377;SDS011;51982;51.042;13.806;2022-08-25T10:45:35;15.15;;;5.40;;
65377;SDS011;51982;51.042;13.806;2022-08-25T10:48:17;23.00;;;5.82;;
65377;SDS011;51982;51.042;13.806;2022-08-25T10:50:58;24.45;;;4.95;;
65377;SDS011;51982;51.042;13.806;2022-08-25T10:56:25;20.08;;;5.72;;
65377;SDS011;51982;51.042;13.806;2022-08-25T11:04:52;22.80;;;5.65;;
65377;SDS011;51982;51.042;13.806;2022-08-25T11:07:24;19.20;;;5.13;;
65377;SDS011;51982;51.042;13.806;2022-08-25T11:09:57;27.98;;;5.25;;
65377;SDS011;51982;51.042;13.806;2022-08-25T11:12:30;26.20;;;5.68;;
65377;SDS011;51982;51.042;13.806;2022-08-25T11:15:06;19.57;;;5.33;;
65377;SDS011;51982;51.042;13.806;2022-08-25T11:17:51;23.80;;;5.30;;
65377;SDS011;51982;51.042;13.806;2022-08-25T11:20:21;20.58;;;5.88;;
65377;SDS011;51982;51.042;13.806;2022-08-25T11:22:54;24.63;;;5.25;;
65377;SDS011;51982;51.042;13.806;2022-08-25T11:25:34;23.17;;;6.05;;
65377;SDS011;51982;51.042;13.806;2022-08-25T11:28:05;23.95;;;5.30;;
65377;SDS011;51982;51.042;13.806;2022-08-25T11:30:55;22.58;;;5.53;;
65377;SDS011;51982;51.042;13.806;2022-08-25T11:33:22;27.38;;;5.85;;
65377;SDS011;51982;51.042;13.806;2022-08-25T11:35:54;28.15;;;5.13;;
65377;SDS011;51982;51.042;13.806;2022-08-25T11:49:43;19.45;;;4.90;;
65377;SDS011;51982;51.042;13.806;2022-08-25T12:00:42;27.58;;;5.18;;
65377;SDS011;51982;51.042;13.806;2022-08-25T12:14:14;22.63;;;5.25;;
65377;SDS011;51982;51.042;13.806;2022-08-25T12:19:25;24.30;;;5.30;;
65377;SDS011;51982;51.042;13.806;2022-08-25T12:21:54;18.38;;;5.28;;
65377;SDS011;51982;51.042;13.806;2022-08-25T12:27:08;21.67;;;5.03;;
65377;SDS011;51982;51.042;13.806;2022-08-25T12:29:39;26.83;;;5.38;;
65377;SDS011;51982;51.042;13.806;2022-08-25T12:35:00;24.15;;;4.75;;
65377;SDS011;51982;51.042;13.806;2022-08-25T12:37:52;24.77;;;5.18;;
65377;SDS011;51982;51.042;13.806;2022-08-25T12:40:27;17.63;;;4.78;;
65377;SDS011;51982;51.042;13.806;2022-08-25T12:42:59;19.98;;;4.80;;
65377;SDS011;51982;51.042;13.806;2022-08-25T12:51:02;19.45;;;5.05;;
65377;SDS011;51982;51.042;13.806;2022-08-25T12:53:34;19.90;;;5.00;;
65377;SDS011;51982;51.042;13.806;2022-08-25T12:56:04;20.13;;;5.10;;
65377;SDS011;51982;51.042;13.806;2022-08-25T12:58:49;21.17;;;4.93;;
65377;SDS011;51982;51.042;13.806;2022-08-25T13:01:30;25.23;;;5.10;;
65377;SDS011;51982;51.042;13.806;2022-08-25T13:10:02;22.40;;;5.20;;
65377;SDS011;51982;51.042;13.806;2022-08-25T13:13:09;20.67;;;5.07;;
65377;SDS011;51982;51.042;13.806;2022-08-25T13:15:57;22.40;;;4.13;;
65377;SDS011;51982;51.042;13.806;2022-08-25T13:18:27;27.40;;;4.50;;
65377;SDS011;51982;51.042;13.806;2022-08-25T13:23:36;27.30;;;4.75;;
65377;SDS011;51982;51.042;13.806;2022-08-25T13:26:04;18.83;;;4.45;;
65377;SDS011;51982;51.042;13.806;2022-08-25T13:28:33;19.63;;;4.95;;
65377;SDS011;51982;51.042;13.806;2022-08-25T13:31:08;20.67;;;4.10;;
65377;SDS011;51982;51.042;13.806;2022-08-25T13:33:45;21.73;;;4.57;;
65377;SDS011;51982;51.042;13.806;2022-08-25T13:36:17;27.63;;;5.15;;
65377;SDS011;51982;51.042;13.806;2022-08-25T13:39:15;22.10;;;4.65;;
65377;SDS011;51982;51.042;13.806;2022-08-25T13:41:47;19.77;;;4.85;;
65377;SDS011;51982;51.042;13.806;2022-08-25T13:44:17;21.25;;;4.60;;
65377;SDS011;51982;51.042;13.806;2022-08-25T13:46:43;28.90;;;5.20;;
65377;SDS011;51982;51.042;13.806;2022-08-25T13:49:11;19.73;;;5.32;;
65377;SDS011;51982;51.042;13.806;2022-08-25T13:51:39;23.45;;;4.78;;
65377;SDS011;51982;51.042;13.806;2022-08-25T13:54:49;19.10;;;4.85;;
65377;SDS011;51982;51.042;13.806;2022-08-25T13:57:21;29.42;;;4.65;;
65377;SDS011;51982;51.042;13.806;2022-08-25T13:59:50;25.58;;;4.85;;
65377;SDS011;51982;51.042;13.806;2022-08-25T14:02:46;26.13;;;5.10;;
65377;SDS011;51982;51.042;13.806;2022-08-25T14:05:31;19.50;;;4.65;;
65377;SDS011;51982;51.042;13.806;2022-08-25T14:08:04;20.38;;;4.97;;
65377;SDS011;51982;51.042;13.806;2022-08-25T14:10:36;30.42;;;4.95;;
65377;SDS011;51982;51.042;13.806;2022-08-25T14:13:12;21.77;;;4.90;;
65377;SDS011;51982;51.042;13.806;2022-08-25T14:15:39;21.10;;;4.28;;
65377;SDS011;51982;51.042;13.806;2022-08-25T14:20:34;21.15;;;4.65;;
65377;SDS011;51982;51.042;13.806;2022-08-25T14:23:02;24.38;;;5.00;;
65377;SDS011;51982;51.042;13.806;2022-08-25T14:25:33;23.73;;;4.97;;
65377;SDS011;51982;51.042;13.806;2022-08-25T14:28:00;27.60;;;5.40;;
65377;SDS011;51982;51.042;13.806;2022-08-25T14:30:28;29.25;;;5.07;;
65377;SDS011;51982;51.042;13.806;2022-08-25T14:32:54;22.05;;;4.93;;
65377;SDS011;51982;51.042;13.806;2022-08-25T14:35:20;24.38;;;4.90;;
65377;SDS011;51982;51.042;13.806;2022-08-25T14:37:45;24.37;;;4.97;;
65377;SDS011;51982;51.042;13.806;2022-08-25T14:40:12;27.40;;;5.47;;
65377;SDS011;51982;51.042;13.806;2022-08-25T14:42:39;21.73;;;4.93;;
65377;SDS011;51982;51.042;13.806;2022-08-25T14:45:04;18.77;;;4.47;;
65377;SDS011;51982;51.042;13.806;2022-08-25T14:47:30;28.88;;;4.88;;
65377;SDS011;51982;51.042;13.806;2022-08-25T14:49:56;27.67;;;5.43;;
65377;SDS011;51982;51.042;13.806;2022-08-25T14:52:23;28.35;;;5.28;;
65377;SDS011;51982;51.042;13.806;2022-08-25T14:54:51;21.83;;;5.32;;
65377;SDS011;51982;51.042;13.806;2022-08-25T14:57:17;24.23;;;5.00;;
65377;SDS011;51982;51.042;13.806;2022-08-25T14:59:44;17.23;;;4.32;;
65377;SDS011;51982;51.042;13.806;2022-08-25T15:02:10;25.95;;;5.28;;
65377;SDS011;51982;51.042;13.806;2022-08-25T15:04:42;24.40;;;5.20;;
65377;SDS011;51982;51.042;13.806;2022-08-25T15:07:14;28.02;;;4.70;;
65377;SDS011;51982;51.042;13.806;2022-08-25T15:12:23;25.83;;;5.13;;
65377;SDS011;51982;51.042;13.806;2022-08-25T15:14:48;18.47;;;3.93;;
65377;SDS011;51982;51.042;13.806;2022-08-25T15:17:14;21.73;;;4.60;;
65377;SDS011;51982;51.042;13.806;2022-08-25T15:19:40;23.42;;;5.00;;
65377;SDS011;51982;51.042;13.806;2022-08-25T15:22:06;28.77;;;5.03;;
65377;SDS011;51982;51.042;13.806;2022-08-25T15:24:31;19.47;;;5.00;;
65377;SDS011;51982;51.042;13.806;2022-08-25T15:26:58;24.50;;;4.77;;
65377;SDS011;51982;51.042;13.806;2022-08-25T15:29:25;30.83;;;5.00;;
65377;SDS011;51982;51.042;13.806;2022-08-25T15:31:53;25.10;;;5.30;;
65377;SDS011;51982;51.042;13.806;2022-08-25T15:34:19;25.35;;;4.97;;
65377;SDS011;51982;51.042;13.806;2022-08-25T15:36:45;23.88;;;5.13;;
65377;SDS011;51982;51.042;13.806;2022-08-25T15:39:10;27.05;;;5.38;;
65377;SDS011;51982;51.042;13.806;2022-08-25T15:41:35;19.10;;;5.20;;
65377;SDS011;51982;51.042;13.806;2022-08-25T15:44:02;16.55;;;5.00;;
65377;SDS011;51982;51.042;13.806;2022-08-25T15:46:28;20.58;;;4.85;;
65377;SDS011;51982;51.042;13.806;2022-08-25T15:48:57;22.67;;;5.60;;
65377;SDS011;51982;51.042;13.806;2022-08-25T15:51:24;23.60;;;5.70;;
65377;SDS011;51982;51.042;13.806;2022-08-25T15:53:51;25.63;;;5.63;;
65377;SDS011;51982;51.042;13.806;2022-08-25T15:56:17;23.25;;;5.47;;